Briefing drone pour Portes-les-valence

Rechercher une autre localisation

Conditions de vol :


Nous sommes le : Mercredi 20 janvier 2021
Il est 09:37 UTC (10:37 LT)

Lever de soleil : 06:44 UTC (07:44 LT)
Coucher de soleil : 16:58 UTC (17:58 LT)

Météo

L'essentiel des conditions de vol

VIGILANCE MÉTÉO FRANCE - Drôme (26)
Vigilance Jaune : Vent violent
CARTES DES FRONTS
METAR de LFLU
LFLU 200930Z AUTO 18020KT 9999 FEW048 OVC070 12/05 Q1013

Date d'émission: 20/01/2021
Heure d'émission: 09:30 UTC
Vent: 180° pour 20 KT (37 km/h)
Visibilité horizontale: > 10 km
Plafond :
- Peu de nuages à 4800ft (1463m)
- Couvert à 7000ft (2134m)
Température: 12 °C
Point de rosée: 5 °C
Humidité: 62%
Pression (QNH): 1013 hPa
Prévision 24h pour Valence (5 km)
Vent : 203° pour 3 KT (11 km/h)
Temperature Maxi: 7 °C
Temperature Min: 7 °C
Humidité : 82%
Condition : Nuageux



Warning: count(): Parameter must be an array or an object that implements Countable in /homepages/6/d509196549/htdocs/droneoxygene/briefing.php on line 743
WEBCAM POUR PORTES-LES-VALENCE

Réglementation

Voler en sécurité

CARTES AERONAUTIQUE 1/500.000
CARTES VAC (LFLU)
SUP AIP




Chargement des AIP...
NOTAM (PORTES-LES-VALENCE + Terrain à proximité / FIR )




Chargement des NOTAMS...
CONTACT PREFECTURE 26
Drôme (26) : ddt-sdsr@drome.gouv.fr


Avertissement : Les données mises à disposition sont indicatives. Oxygène Drone ne pourra être tenu responsable de dégâts causés aux biens et aux personnes.